ELA weather

El Arenoso Airport
Guaymas, Sonora, Mexico

Public forecast

Using degrees Celsius for public forecast. Weather courtesy of forecast.io.

Closest aviation weather report (METAR) to El Arenoso Airport

Closest report is General José María Yáñez International Airport, 23.3 nm (43.2 km) SW. Retrieved 2020/05/31 14:15 UTC (14 minutes ago):

MMGM 311415Z RTD 00000KT 7SM BKN015 28/25 A2981 RMK 8/800 RTS

Closest aviation forecast (TAF) to El Arenoso Airport

Forecast is more than 6 hours old.

Closest forecast is General José María Yáñez International Airport, 23.3 nm (43.2 km) SW. Retrieved 2020/05/31 06:35 UTC (8 hours ago):

TAF MMGM 310428Z 3106/0106 24010KT P6SM SCT020 FM311200 00000KT 3SM BR BKN020 TEMPO 3112/3115 1SM BR FM311800 24015KT P6SM SCT200 FM010300 00000KT P6SM SCT020